createdAt,value
2022-11-12T00:01:01.035Z,18.17
2022-11-12T00:03:27.929Z,26.63
2022-11-12T00:05:54.646Z,25.88
2022-11-12T00:08:22.825Z,33.63
2022-11-12T00:10:49.639Z,24.80
2022-11-12T00:13:16.767Z,17.25
2022-11-12T00:15:43.514Z,19.95
2022-11-12T00:18:10.278Z,24.63
2022-11-12T00:20:36.979Z,27.00
2022-11-12T00:23:04.025Z,27.33
2022-11-12T00:25:31.213Z,24.85
2022-11-12T00:28:16.052Z,25.10
2022-11-12T00:30:42.737Z,17.15
2022-11-12T00:33:09.517Z,22.02
2022-11-12T00:35:36.172Z,37.38
2022-11-12T00:38:03.071Z,25.13
2022-11-12T00:40:29.858Z,14.82
2022-11-12T00:42:56.495Z,36.53
2022-11-12T00:45:23.479Z,23.10
2022-11-12T00:47:50.154Z,23.30
2022-11-12T00:50:17.102Z,29.88
2022-11-12T00:52:43.959Z,30.83
2022-11-12T00:55:11.003Z,36.38
2022-11-12T00:57:37.734Z,14.48
2022-11-12T01:00:07.858Z,25.65
2022-11-12T01:02:42.233Z,24.98
2022-11-12T01:05:10.329Z,25.75
2022-11-12T01:07:37.068Z,35.33
2022-11-12T01:10:04.486Z,18.02
2022-11-12T01:12:31.990Z,24.30
2022-11-12T01:14:58.846Z,26.27
2022-11-12T01:17:25.572Z,28.00
2022-11-12T01:19:52.233Z,27.52
2022-11-12T01:22:19.234Z,33.72
2022-11-12T01:24:45.870Z,34.13
2022-11-12T01:27:12.710Z,39.55
2022-11-12T01:29:39.395Z,17.70
2022-11-12T01:32:06.292Z,22.15
2022-11-12T01:34:33.173Z,32.17
2022-11-12T01:36:59.786Z,20.85
2022-11-12T01:39:26.403Z,15.38
2022-11-12T01:41:53.099Z,34.20
2022-11-12T01:44:22.389Z,20.50
2022-11-12T01:47:18.328Z,17.30
2022-11-12T01:49:57.155Z,22.58
2022-11-12T01:52:48.855Z,12.68
2022-11-12T01:55:19.973Z,24.45
2022-11-12T01:57:54.670Z,24.65
2022-11-12T02:00:21.440Z,21.27
2022-11-12T02:03:00.749Z,24.30
2022-11-12T02:05:29.586Z,20.65
2022-11-12T02:07:58.614Z,20.55
2022-11-12T02:10:26.793Z,16.95
2022-11-12T02:13:13.107Z,23.05
2022-11-12T02:15:41.176Z,18.33
2022-11-12T02:18:08.409Z,14.52
2022-11-12T02:20:36.522Z,12.02
2022-11-12T02:23:04.431Z,15.43
2022-11-12T02:25:31.736Z,17.20
2022-11-12T02:28:00.816Z,12.52
2022-11-12T02:30:40.545Z,15.90
2022-11-12T02:33:07.414Z,15.45
2022-11-12T02:35:34.565Z,14.15
2022-11-12T02:38:01.644Z,14.52
2022-11-12T02:40:28.465Z,16.35
2022-11-12T02:42:55.243Z,15.63
2022-11-12T02:45:22.151Z,15.00
2022-11-12T02:47:48.848Z,19.38
2022-11-12T02:50:16.098Z,21.17
2022-11-12T02:52:43.036Z,16.05
2022-11-12T02:55:11.964Z,12.75
2022-11-12T02:57:39.552Z,16.52
2022-11-12T03:00:09.008Z,21.83
2022-11-12T03:02:42.479Z,11.68
2022-11-12T03:05:12.779Z,12.50
2022-11-12T03:07:39.797Z,13.85
2022-11-12T03:10:06.899Z,11.57
2022-11-12T03:12:33.988Z,14.38
2022-11-12T03:15:00.701Z,9.88
2022-11-12T03:17:27.342Z,9.25
2022-11-12T03:19:53.994Z,11.23
2022-11-12T03:22:20.643Z,14.52
2022-11-12T03:24:47.266Z,18.52
2022-11-12T03:27:13.948Z,10.82
2022-11-12T03:29:40.618Z,10.07
2022-11-12T03:32:07.262Z,8.98
2022-11-12T03:34:33.950Z,8.52
2022-11-12T03:37:00.612Z,7.35
2022-11-12T03:39:27.254Z,7.95
2022-11-12T03:41:53.919Z,10.68
2022-11-12T03:44:20.576Z,8.73
2022-11-12T03:46:47.214Z,9.02
2022-11-12T03:49:13.888Z,8.15
2022-11-12T03:51:40.570Z,10.75
2022-11-12T03:54:07.364Z,8.98
2022-11-12T03:56:34.006Z,10.45
2022-11-12T03:59:00.749Z,8.70
2022-11-12T04:01:27.539Z,14.05
2022-11-12T04:03:55.355Z,11.40
2022-11-12T04:06:40.449Z,15.77
2022-11-12T04:09:07.328Z,16.40
2022-11-12T04:11:33.988Z,13.32
2022-11-12T04:14:00.622Z,11.27
2022-11-12T04:16:46.099Z,13.40
2022-11-12T04:19:32.398Z,16.55
2022-11-12T04:22:11.207Z,16.80
2022-11-12T04:24:58.683Z,11.65
2022-11-12T04:27:30.999Z,12.98
2022-11-12T04:30:16.255Z,10.90
2022-11-12T04:32:52.895Z,12.45
2022-11-12T04:35:20.139Z,15.18
2022-11-12T04:37:47.831Z,17.45
2022-11-12T04:40:34.796Z,14.02
2022-11-12T04:43:20.761Z,14.40
2022-11-12T04:45:51.079Z,15.85
2022-11-12T04:48:18.238Z,11.00
2022-11-12T04:50:47.759Z,11.38
2022-11-12T04:53:14.428Z,10.18
2022-11-12T04:55:41.400Z,15.55
2022-11-12T04:58:08.164Z,14.50
2022-11-12T05:00:35.095Z,13.20
2022-11-12T05:03:01.760Z,16.40
2022-11-12T05:05:32.619Z,20.45
2022-11-12T05:08:02.298Z,16.88
2022-11-12T05:10:29.876Z,18.23
2022-11-12T05:12:56.550Z,10.43
2022-11-12T05:15:23.310Z,12.27
2022-11-12T05:17:50.026Z,11.77
2022-11-12T05:20:17.538Z,13.25
2022-11-12T05:22:54.484Z,7.25
2022-11-12T05:25:31.213Z,9.95
2022-11-12T05:27:57.912Z,9.45
2022-11-12T05:30:24.555Z,13.68
2022-11-12T05:32:51.203Z,16.15
2022-11-12T05:35:17.921Z,15.23
2022-11-12T05:37:44.636Z,19.02
2022-11-12T05:40:11.872Z,17.55
2022-11-12T05:42:38.596Z,14.85
2022-11-12T05:45:05.949Z,15.30
2022-11-12T05:47:32.625Z,14.05
2022-11-12T05:49:59.310Z,16.08
2022-11-12T05:52:26.079Z,28.52
2022-11-12T05:54:52.731Z,24.20
2022-11-12T05:57:19.374Z,21.08
2022-11-12T05:59:46.000Z,26.33
2022-11-12T06:02:12.756Z,17.20
2022-11-12T06:04:39.524Z,24.88
2022-11-12T06:07:06.341Z,25.50
2022-11-12T06:09:33.003Z,14.25
2022-11-12T06:11:59.700Z,18.98
2022-11-12T06:14:26.332Z,13.63
2022-11-12T06:16:53.034Z,12.77
2022-11-12T06:19:19.733Z,17.75
2022-11-12T06:21:46.387Z,13.40
2022-11-12T06:24:13.363Z,22.27
2022-11-12T06:26:40.042Z,13.43
2022-11-12T06:29:06.667Z,13.88
2022-11-12T06:31:33.282Z,13.70
2022-11-12T06:34:00.067Z,16.45
2022-11-12T06:36:26.699Z,13.70
2022-11-12T06:38:53.346Z,24.40
2022-11-12T06:41:20.138Z,22.08
2022-11-12T06:43:46.771Z,10.30
2022-11-12T06:46:16.360Z,30.27
2022-11-12T06:48:43.351Z,16.83
2022-11-12T06:51:17.910Z,12.95
2022-11-12T06:53:45.221Z,11.25
2022-11-12T06:56:12.942Z,14.15
2022-11-12T06:58:40.024Z,17.35
2022-11-12T07:01:11.845Z,10.98
2022-11-12T07:03:40.010Z,14.98
2022-11-12T07:06:09.139Z,20.83
2022-11-12T07:08:36.470Z,35.47
2022-11-12T07:11:03.929Z,25.70
2022-11-12T07:13:32.503Z,22.10
2022-11-12T07:16:00.816Z,24.38
2022-11-12T07:18:28.569Z,20.55
2022-11-12T07:21:04.125Z,37.95
2022-11-12T07:23:32.766Z,45.85
2022-11-12T07:26:02.475Z,28.05
2022-11-12T07:28:30.097Z,21.00
2022-11-12T07:30:57.903Z,66.20
2022-11-12T07:33:25.091Z,38.42
2022-11-12T07:35:59.562Z,56.72
2022-11-12T07:38:27.766Z,22.00
2022-11-12T07:41:03.394Z,42.47
2022-11-12T07:43:31.847Z,71.72
2022-11-12T07:46:00.254Z,33.53
2022-11-12T07:48:28.785Z,19.88
2022-11-12T07:51:15.382Z,12.70
2022-11-12T07:53:43.453Z,14.38
2022-11-12T07:56:12.946Z,18.83
2022-11-12T07:58:40.152Z,19.80
2022-11-12T08:01:21.783Z,17.73
2022-11-12T08:03:48.460Z,18.30
2022-11-12T08:06:15.141Z,26.42
2022-11-12T08:08:41.771Z,34.40
2022-11-12T08:11:09.170Z,23.23
2022-11-12T08:13:35.827Z,44.47
2022-11-12T08:16:02.503Z,18.10
2022-11-12T08:18:29.949Z,25.42
2022-11-12T08:21:06.149Z,29.48
2022-11-12T08:23:32.795Z,17.55
2022-11-12T08:26:04.378Z,19.50
2022-11-12T08:28:36.347Z,25.73
2022-11-12T08:31:08.841Z,29.67
2022-11-12T08:33:35.888Z,14.30
2022-11-12T08:36:07.494Z,18.08
2022-11-12T08:38:34.649Z,31.42
2022-11-12T08:41:02.566Z,27.83
2022-11-12T08:43:29.378Z,34.00
2022-11-12T08:45:59.630Z,22.38
2022-11-12T08:48:27.220Z,24.20
2022-11-12T08:50:54.561Z,20.63
2022-11-12T08:53:23.684Z,19.73
2022-11-12T08:55:54.167Z,15.52
2022-11-12T08:58:21.304Z,17.38
2022-11-12T09:00:49.814Z,10.73
2022-11-12T09:03:22.502Z,12.30
2022-11-12T09:05:49.850Z,11.93
2022-11-12T09:08:22.369Z,16.20
2022-11-12T09:10:50.558Z,14.18
2022-11-12T09:13:18.546Z,12.57
2022-11-12T09:15:45.963Z,11.75
2022-11-12T09:18:16.188Z,16.52
2022-11-12T09:20:43.299Z,14.57
2022-11-12T09:23:13.064Z,13.35
2022-11-12T09:25:40.662Z,8.30
2022-11-12T09:28:16.171Z,9.80
2022-11-12T09:30:46.411Z,15.90
2022-11-12T09:33:18.364Z,15.50
2022-11-12T09:35:45.897Z,11.57
2022-11-12T09:38:14.814Z,16.17
2022-11-12T09:40:44.205Z,13.70
2022-11-12T09:43:31.879Z,9.93
2022-11-12T09:46:27.711Z,12.30
2022-11-12T09:49:05.014Z,14.15
2022-11-12T09:51:39.201Z,13.95
2022-11-12T09:54:38.335Z,10.77
2022-11-12T09:57:09.634Z,11.52
2022-11-12T09:59:40.938Z,11.20
2022-11-12T10:02:19.318Z,9.77
2022-11-12T10:05:01.045Z,8.32
2022-11-12T10:07:42.761Z,9.60
2022-11-12T10:10:33.174Z,41.10
2022-11-12T10:13:25.516Z,15.93
2022-11-12T10:16:43.056Z,10.45
2022-11-12T10:19:30.832Z,13.00
2022-11-12T10:22:16.308Z,11.02
2022-11-12T10:24:44.305Z,13.48
2022-11-12T10:27:19.291Z,13.93
2022-11-12T10:30:06.975Z,18.00
2022-11-12T10:32:35.660Z,13.50
2022-11-12T10:35:02.318Z,13.50
2022-11-12T10:37:57.035Z,12.27
2022-11-12T10:40:26.652Z,13.93
2022-11-12T10:42:59.326Z,11.27
2022-11-12T10:45:26.796Z,11.10
2022-11-12T10:47:54.802Z,13.15
2022-11-12T10:50:33.335Z,10.90
2022-11-12T10:53:06.107Z,14.48
2022-11-12T10:55:35.509Z,8.68
2022-11-12T10:58:09.375Z,10.25
2022-11-12T11:00:56.848Z,10.25
2022-11-12T11:03:35.776Z,10.43
2022-11-12T11:06:16.307Z,11.15
2022-11-12T11:08:50.294Z,10.75
2022-11-12T11:11:23.660Z,10.98
2022-11-12T11:13:55.744Z,13.45
2022-11-12T11:16:27.837Z,11.88
2022-11-12T11:19:05.756Z,14.13
2022-11-12T11:21:49.662Z,13.40
2022-11-12T11:24:36.632Z,15.15
2022-11-12T11:27:22.223Z,27.38
2022-11-12T11:30:13.498Z,19.42
2022-11-12T11:33:21.594Z,13.10
2022-11-12T11:36:12.321Z,13.40
2022-11-12T11:38:41.785Z,10.98
2022-11-12T11:41:14.711Z,11.30
2022-11-12T11:44:07.733Z,10.85
2022-11-12T11:47:01.695Z,13.27
2022-11-12T11:50:01.103Z,11.07
2022-11-12T11:52:49.386Z,13.07
2022-11-12T11:55:43.291Z,63.58
2022-11-12T11:58:18.041Z,24.70
2022-11-12T12:01:01.176Z,11.77
2022-11-12T12:03:48.850Z,13.13
2022-11-12T12:06:18.316Z,11.68
2022-11-12T12:08:51.212Z,16.15
2022-11-12T12:11:34.441Z,13.40
2022-11-12T12:14:04.099Z,15.60
2022-11-12T12:16:35.033Z,15.65
2022-11-12T12:19:29.451Z,14.43
2022-11-12T12:21:58.507Z,17.75
2022-11-12T12:24:30.366Z,32.65
2022-11-12T12:27:10.088Z,17.08
2022-11-12T12:29:44.074Z,17.38
2022-11-12T12:32:24.101Z,14.10
2022-11-12T12:35:20.184Z,14.35
2022-11-12T12:38:06.541Z,22.60
2022-11-12T12:40:39.351Z,20.60
2022-11-12T12:43:29.158Z,17.70
2022-11-12T12:45:57.717Z,20.25
2022-11-12T12:48:38.612Z,17.45
2022-11-12T12:51:05.378Z,18.23
2022-11-12T12:53:34.433Z,20.92
2022-11-12T12:56:14.340Z,18.15
2022-11-12T12:58:45.142Z,18.38
2022-11-12T13:01:21.458Z,19.67
2022-11-12T13:03:55.095Z,17.02
2022-11-12T13:06:22.036Z,15.80
2022-11-12T13:08:51.945Z,15.50
2022-11-12T13:11:59.314Z,14.32
2022-11-12T13:14:31.428Z,16.08
2022-11-12T13:17:00.788Z,17.58
2022-11-12T13:19:32.583Z,16.38
2022-11-12T13:22:49.227Z,19.05
2022-11-12T13:25:16.772Z,17.08
2022-11-12T13:27:43.417Z,19.45
2022-11-12T13:30:20.740Z,18.38
2022-11-12T13:32:47.355Z,18.90
2022-11-12T13:35:17.112Z,18.50
2022-11-12T13:37:44.978Z,17.85
2022-11-12T13:40:16.431Z,17.70
2022-11-12T13:42:49.545Z,17.17
2022-11-12T13:45:24.746Z,20.08
2022-11-12T13:47:52.956Z,24.60
2022-11-12T13:50:22.767Z,72.30
2022-11-12T13:52:49.926Z,41.88
2022-11-12T13:55:19.558Z,23.63
2022-11-12T13:57:56.125Z,19.98
2022-11-12T14:00:25.879Z,16.27
2022-11-12T14:02:54.236Z,16.13
2022-11-12T14:05:25.159Z,18.55
2022-11-12T14:08:13.752Z,17.42
2022-11-12T14:10:58.858Z,20.05
2022-11-12T14:13:31.433Z,26.45
2022-11-12T14:16:21.110Z,28.48
2022-11-12T14:18:53.824Z,54.10
2022-11-12T14:21:20.535Z,55.08
2022-11-12T14:23:48.952Z,27.80
2022-11-12T14:26:39.995Z,24.60
2022-11-12T14:29:06.818Z,28.13
2022-11-12T14:31:33.832Z,23.20
2022-11-12T14:34:20.307Z,21.60
2022-11-12T14:36:47.947Z,22.70
2022-11-12T14:39:15.440Z,25.30
2022-11-12T14:41:45.979Z,21.80
2022-11-12T14:44:19.620Z,24.42
2022-11-12T14:46:55.975Z,19.95
2022-11-12T14:49:33.706Z,22.05
2022-11-12T14:52:24.743Z,21.30
2022-11-12T14:54:59.859Z,22.67
2022-11-12T14:57:31.718Z,22.13
2022-11-12T14:59:58.431Z,25.60
2022-11-12T15:02:48.913Z,23.98
2022-11-12T15:05:21.192Z,22.83
2022-11-12T15:08:02.614Z,22.83
2022-11-12T15:10:31.436Z,24.50
2022-11-12T15:13:06.766Z,23.48
2022-11-12T15:15:35.111Z,24.10
2022-11-12T15:18:07.335Z,27.98
2022-11-12T15:20:34.186Z,28.38
2022-11-12T15:23:00.943Z,25.80
2022-11-12T15:25:30.820Z,25.90
2022-11-12T15:28:22.802Z,22.13
2022-11-12T15:31:07.895Z,27.20
2022-11-12T15:33:34.918Z,25.95
2022-11-12T15:36:02.200Z,26.45
2022-11-12T15:38:37.809Z,23.80
2022-11-12T15:41:05.221Z,27.30
2022-11-12T15:43:35.624Z,27.05
2022-11-12T15:46:03.036Z,236.57
2022-11-12T15:48:29.670Z,39.83
2022-11-12T15:50:56.314Z,27.20
2022-11-12T15:53:23.066Z,24.48
2022-11-12T15:55:51.789Z,23.05
2022-11-12T15:58:25.802Z,22.90
2022-11-12T16:00:52.612Z,25.10
2022-11-12T16:03:21.893Z,27.30
2022-11-12T16:05:48.821Z,25.58
2022-11-12T16:08:15.802Z,27.55
2022-11-12T16:10:44.234Z,24.27
2022-11-12T16:13:33.089Z,27.45
2022-11-12T16:16:03.260Z,30.48
2022-11-12T16:18:29.884Z,27.30
2022-11-12T16:20:56.596Z,45.53
2022-11-12T16:23:23.239Z,25.48
2022-11-12T16:25:50.049Z,29.13
2022-11-12T16:28:18.202Z,40.20
2022-11-12T16:30:47.619Z,120.22
2022-11-12T16:33:14.853Z,115.80
2022-11-12T16:35:41.833Z,117.38
2022-11-12T16:38:16.398Z,62.30
2022-11-12T16:40:44.659Z,49.88
2022-11-12T16:43:11.601Z,51.58
2022-11-12T16:45:40.131Z,47.92
2022-11-12T16:48:21.803Z,41.78
2022-11-12T16:50:49.087Z,67.60
2022-11-12T16:53:15.798Z,63.40
2022-11-12T16:55:42.780Z,71.25
2022-11-12T16:58:14.051Z,93.55
2022-11-12T17:00:45.894Z,83.65
2022-11-12T17:03:13.707Z,52.25
2022-11-12T17:05:40.341Z,44.17
2022-11-12T17:08:08.412Z,71.03
2022-11-12T17:10:35.104Z,58.35
2022-11-12T17:13:01.758Z,52.97
2022-11-12T17:15:28.453Z,54.13
2022-11-12T17:17:55.258Z,65.22
2022-11-12T17:20:21.917Z,49.05
2022-11-12T17:22:48.604Z,48.80
2022-11-12T17:25:15.251Z,56.60
2022-11-12T17:27:42.200Z,49.05
2022-11-12T17:30:10.018Z,52.00
2022-11-12T17:32:36.628Z,55.92
2022-11-12T17:35:03.434Z,49.88
2022-11-12T17:37:30.100Z,60.08
2022-11-12T17:39:56.745Z,47.38
2022-11-12T17:42:23.402Z,46.50
2022-11-12T17:44:50.086Z,33.13
2022-11-12T17:47:16.715Z,50.78
2022-11-12T17:49:43.583Z,35.28
2022-11-12T17:52:10.261Z,50.30
2022-11-12T17:54:37.075Z,32.28
2022-11-12T17:57:03.861Z,34.33
2022-11-12T17:59:30.606Z,44.75
2022-11-12T18:01:57.210Z,42.97
2022-11-12T18:04:24.112Z,51.08
2022-11-12T18:06:51.318Z,88.95
2022-11-12T18:09:17.999Z,61.00
2022-11-12T18:11:50.375Z,51.97
2022-11-12T18:14:17.296Z,43.55
2022-11-12T18:16:44.842Z,42.38
2022-11-12T18:19:12.482Z,41.35
2022-11-12T18:21:40.620Z,60.97
2022-11-12T18:24:13.036Z,48.38
2022-11-12T18:26:41.060Z,54.05
2022-11-12T18:29:07.707Z,66.57
2022-11-12T18:31:34.726Z,100.93
2022-11-12T18:34:01.574Z,48.38
2022-11-12T18:36:29.193Z,48.17
2022-11-12T18:38:55.905Z,58.20
2022-11-12T18:41:25.936Z,107.13
2022-11-12T18:43:56.419Z,142.57
2022-11-12T18:46:23.668Z,88.20
2022-11-12T18:48:50.395Z,58.33
2022-11-12T18:51:18.554Z,63.72
2022-11-12T18:53:46.037Z,44.53
2022-11-12T18:56:18.366Z,37.95
2022-11-12T18:58:45.517Z,39.15
2022-11-12T19:01:20.614Z,35.08
2022-11-12T19:03:48.367Z,36.63
2022-11-12T19:06:15.344Z,37.53
2022-11-12T19:08:42.178Z,39.97
2022-11-12T19:11:13.930Z,27.48
2022-11-12T19:13:41.195Z,38.30
2022-11-12T19:16:11.808Z,31.08
2022-11-12T19:18:41.801Z,37.80
2022-11-12T19:21:14.062Z,38.38
2022-11-12T19:23:43.949Z,28.05
2022-11-12T19:26:16.129Z,24.55
2022-11-12T19:28:44.145Z,29.10
2022-11-12T19:31:17.241Z,26.42
2022-11-12T19:33:44.519Z,29.52
2022-11-12T19:36:18.690Z,31.67
2022-11-12T19:38:45.357Z,25.67
2022-11-12T19:41:19.029Z,33.28
2022-11-12T19:43:46.863Z,22.98
2022-11-12T19:46:14.425Z,25.17
2022-11-12T19:48:41.159Z,32.38
2022-11-12T19:51:09.558Z,31.60
2022-11-12T19:53:41.515Z,26.58
2022-11-12T19:56:08.238Z,21.50
2022-11-12T19:58:35.038Z,25.45
2022-11-12T20:01:05.244Z,27.33
2022-11-12T20:03:32.314Z,21.85
2022-11-12T20:06:11.920Z,32.45
2022-11-12T20:08:38.932Z,23.90
2022-11-12T20:11:05.974Z,31.20
2022-11-12T20:13:32.842Z,24.60
2022-11-12T20:15:59.573Z,20.83
2022-11-12T20:18:26.785Z,21.65
2022-11-12T20:20:56.573Z,30.10
2022-11-12T20:23:27.244Z,30.50
2022-11-12T20:25:54.341Z,22.95
2022-11-12T20:28:21.068Z,26.20
2022-11-12T20:30:47.699Z,28.92
2022-11-12T20:33:14.488Z,30.40
2022-11-12T20:35:41.192Z,28.95
2022-11-12T20:38:08.275Z,27.58
2022-11-12T20:40:35.001Z,23.88
2022-11-12T20:43:01.717Z,23.98
2022-11-12T20:45:28.440Z,26.38
2022-11-12T20:47:56.165Z,28.73
2022-11-12T20:50:23.474Z,24.65
2022-11-12T20:52:50.307Z,28.13
2022-11-12T20:55:18.004Z,30.38
2022-11-12T20:57:44.757Z,46.97
2022-11-12T21:00:13.920Z,32.80
2022-11-12T21:02:42.003Z,35.95
2022-11-12T21:05:09.041Z,29.35
2022-11-12T21:07:35.818Z,28.55
2022-11-12T21:10:03.341Z,27.83
2022-11-12T21:12:31.266Z,32.03
2022-11-12T21:14:57.935Z,42.13
2022-11-12T21:17:24.637Z,37.97
2022-11-12T21:19:51.330Z,33.55
2022-11-12T21:22:17.986Z,25.88
2022-11-12T21:24:44.629Z,25.85
2022-11-12T21:27:11.803Z,35.63
2022-11-12T21:29:38.548Z,30.73
2022-11-12T21:32:05.623Z,25.60
2022-11-12T21:34:35.475Z,21.52
2022-11-12T21:37:02.134Z,22.15
2022-11-12T21:39:28.774Z,20.73
2022-11-12T21:41:55.531Z,17.17
2022-11-12T21:44:22.284Z,25.17
2022-11-12T21:46:48.922Z,14.35
2022-11-12T21:49:15.558Z,18.48
2022-11-12T21:51:42.202Z,29.48
2022-11-12T21:54:09.131Z,25.83
2022-11-12T21:56:37.625Z,18.58
2022-11-12T21:59:04.460Z,23.40
2022-11-12T22:01:34.589Z,22.58
2022-11-12T22:04:06.684Z,29.75
2022-11-12T22:06:36.877Z,31.40
2022-11-12T22:09:04.075Z,17.25
2022-11-12T22:11:30.944Z,23.58
2022-11-12T22:13:57.676Z,21.58
2022-11-12T22:16:26.694Z,22.48
2022-11-12T22:18:55.232Z,18.25
2022-11-12T22:21:38.463Z,35.80
2022-11-12T22:24:06.868Z,24.15
2022-11-12T22:26:33.678Z,26.55
2022-11-12T22:29:00.685Z,26.90
2022-11-12T22:31:29.544Z,33.00
2022-11-12T22:33:58.113Z,35.22
2022-11-12T22:36:27.147Z,26.25
2022-11-12T22:38:54.841Z,28.38
2022-11-12T22:41:29.812Z,27.30
2022-11-12T22:44:01.755Z,25.05
2022-11-12T22:46:34.259Z,31.42
2022-11-12T22:49:01.843Z,31.88
2022-11-12T22:51:30.766Z,34.88
2022-11-12T22:53:59.859Z,21.52
2022-11-12T22:56:29.166Z,20.88
2022-11-12T22:58:56.021Z,25.88
2022-11-12T23:01:24.132Z,24.30
2022-11-12T23:03:52.350Z,22.73
2022-11-12T23:06:20.955Z,39.75
2022-11-12T23:08:48.208Z,35.92
2022-11-12T23:11:17.630Z,48.28
2022-11-12T23:13:45.088Z,22.38
2022-11-12T23:16:15.241Z,19.98
2022-11-12T23:18:42.468Z,14.15
2022-11-12T23:21:15.244Z,14.32
2022-11-12T23:23:41.917Z,19.23
2022-11-12T23:26:18.241Z,17.00
2022-11-12T23:28:45.060Z,16.23
2022-11-12T23:31:17.266Z,26.15
2022-11-12T23:33:45.392Z,20.48
2022-11-12T23:36:12.632Z,45.47
2022-11-12T23:38:39.480Z,19.60
2022-11-12T23:41:07.527Z,29.63
2022-11-12T23:43:34.166Z,24.42
2022-11-12T23:46:00.834Z,28.38
2022-11-12T23:48:28.539Z,43.00
2022-11-12T23:51:05.334Z,26.25
2022-11-12T23:53:35.959Z,27.70
2022-11-12T23:56:03.871Z,31.10
2022-11-12T23:58:30.992Z,28.38
